sensor_id;sensor_type;location;lat;lon;timestamp;P1;durP1;ratioP1;P2;durP2;ratioP2
14510;SDS011;7341;50.930;4.038;2022-12-07T00:01:24;10.73;;;8.03;;
14510;SDS011;7341;50.930;4.038;2022-12-07T00:03:54;9.40;;;8.50;;
14510;SDS011;7341;50.930;4.038;2022-12-07T00:06:25;10.60;;;8.53;;
14510;SDS011;7341;50.930;4.038;2022-12-07T00:08:52;9.67;;;7.73;;
14510;SDS011;7341;50.930;4.038;2022-12-07T00:11:20;13.97;;;7.83;;
14510;SDS011;7341;50.930;4.038;2022-12-07T00:13:50;10.93;;;7.63;;
14510;SDS011;7341;50.930;4.038;2022-12-07T00:16:19;12.53;;;7.93;;
14510;SDS011;7341;50.930;4.038;2022-12-07T00:18:46;13.68;;;10.13;;
14510;SDS011;7341;50.930;4.038;2022-12-07T00:21:16;10.77;;;8.57;;
14510;SDS011;7341;50.930;4.038;2022-12-07T00:23:44;12.30;;;8.43;;
14510;SDS011;7341;50.930;4.038;2022-12-07T00:26:14;8.60;;;7.67;;
14510;SDS011;7341;50.930;4.038;2022-12-07T00:28:45;9.97;;;7.77;;
14510;SDS011;7341;50.930;4.038;2022-12-07T00:31:12;10.57;;;7.30;;
14510;SDS011;7341;50.930;4.038;2022-12-07T00:33:40;8.87;;;7.27;;
14510;SDS011;7341;50.930;4.038;2022-12-07T00:36:07;10.90;;;8.13;;
14510;SDS011;7341;50.930;4.038;2022-12-07T00:38:37;10.53;;;7.97;;
14510;SDS011;7341;50.930;4.038;2022-12-07T00:41:05;10.97;;;7.40;;
14510;SDS011;7341;50.930;4.038;2022-12-07T00:43:33;9.83;;;7.73;;
14510;SDS011;7341;50.930;4.038;2022-12-07T00:46:00;12.17;;;7.67;;
14510;SDS011;7341;50.930;4.038;2022-12-07T00:48:26;12.23;;;9.45;;
14510;SDS011;7341;50.930;4.038;2022-12-07T00:50:53;12.87;;;8.40;;
14510;SDS011;7341;50.930;4.038;2022-12-07T00:53:20;9.47;;;7.73;;
14510;SDS011;7341;50.930;4.038;2022-12-07T00:55:48;12.53;;;7.90;;
14510;SDS011;7341;50.930;4.038;2022-12-07T00:58:15;8.87;;;6.90;;
14510;SDS011;7341;50.930;4.038;2022-12-07T01:00:42;12.23;;;7.60;;
14510;SDS011;7341;50.930;4.038;2022-12-07T01:03:10;7.63;;;6.87;;
14510;SDS011;7341;50.930;4.038;2022-12-07T01:05:38;11.67;;;7.53;;
14510;SDS011;7341;50.930;4.038;2022-12-07T01:08:05;12.53;;;7.20;;
14510;SDS011;7341;50.930;4.038;2022-12-07T01:10:32;9.63;;;6.77;;
14510;SDS011;7341;50.930;4.038;2022-12-07T01:13:00;9.93;;;7.33;;
14510;SDS011;7341;50.930;4.038;2022-12-07T01:15:27;8.87;;;6.97;;
14510;SDS011;7341;50.930;4.038;2022-12-07T01:17:54;8.33;;;7.03;;
14510;SDS011;7341;50.930;4.038;2022-12-07T01:20:21;12.23;;;6.73;;
14510;SDS011;7341;50.930;4.038;2022-12-07T01:22:48;9.27;;;7.03;;
14510;SDS011;7341;50.930;4.038;2022-12-07T01:25:14;9.03;;;6.90;;
14510;SDS011;7341;50.930;4.038;2022-12-07T01:27:41;12.40;;;6.57;;
14510;SDS011;7341;50.930;4.038;2022-12-07T01:30:13;8.33;;;7.10;;
14510;SDS011;7341;50.930;4.038;2022-12-07T01:32:40;6.60;;;5.80;;
14510;SDS011;7341;50.930;4.038;2022-12-07T01:35:07;7.97;;;5.93;;
14510;SDS011;7341;50.930;4.038;2022-12-07T01:37:34;7.80;;;5.87;;
14510;SDS011;7341;50.930;4.038;2022-12-07T01:40:02;12.90;;;6.00;;
14510;SDS011;7341;50.930;4.038;2022-12-07T01:42:30;8.50;;;6.03;;
14510;SDS011;7341;50.930;4.038;2022-12-07T01:48:11;11.48;;;7.28;;
14510;SDS011;7341;50.930;4.038;2022-12-07T01:50:41;8.43;;;6.13;;
14510;SDS011;7341;50.930;4.038;2022-12-07T01:53:11;7.53;;;5.40;;
14510;SDS011;7341;50.930;4.038;2022-12-07T01:55:40;10.73;;;5.43;;
14510;SDS011;7341;50.930;4.038;2022-12-07T01:58:10;9.93;;;5.53;;
14510;SDS011;7341;50.930;4.038;2022-12-07T02:00:38;5.60;;;4.93;;
14510;SDS011;7341;50.930;4.038;2022-12-07T02:03:06;7.90;;;5.17;;
14510;SDS011;7341;50.930;4.038;2022-12-07T02:05:37;5.50;;;4.97;;
14510;SDS011;7341;50.930;4.038;2022-12-07T02:08:06;8.33;;;5.30;;
14510;SDS011;7341;50.930;4.038;2022-12-07T02:10:34;8.17;;;4.63;;
14510;SDS011;7341;50.930;4.038;2022-12-07T02:13:01;6.17;;;5.03;;
14510;SDS011;7341;50.930;4.038;2022-12-07T02:15:41;6.53;;;4.97;;
14510;SDS011;7341;50.930;4.038;2022-12-07T02:18:16;8.30;;;5.10;;
14510;SDS011;7341;50.930;4.038;2022-12-07T02:20:49;10.73;;;6.07;;
14510;SDS011;7341;50.930;4.038;2022-12-07T02:26:13;5.80;;;5.20;;
14510;SDS011;7341;50.930;4.038;2022-12-07T02:29:07;6.60;;;4.87;;
14510;SDS011;7341;50.930;4.038;2022-12-07T02:31:41;5.73;;;5.13;;
14510;SDS011;7341;50.930;4.038;2022-12-07T02:34:14;9.07;;;5.33;;
14510;SDS011;7341;50.930;4.038;2022-12-07T02:36:50;7.93;;;6.03;;
14510;SDS011;7341;50.930;4.038;2022-12-07T02:39:23;10.63;;;6.10;;
14510;SDS011;7341;50.930;4.038;2022-12-07T02:41:58;8.83;;;5.37;;
14510;SDS011;7341;50.930;4.038;2022-12-07T02:44:31;9.23;;;5.93;;
14510;SDS011;7341;50.930;4.038;2022-12-07T02:46:59;11.02;;;8.43;;
14510;SDS011;7341;50.930;4.038;2022-12-07T02:49:29;10.80;;;7.10;;
14510;SDS011;7341;50.930;4.038;2022-12-07T02:51:57;9.07;;;6.10;;
14510;SDS011;7341;50.930;4.038;2022-12-07T02:54:24;10.30;;;6.67;;
14510;SDS011;7341;50.930;4.038;2022-12-07T02:56:51;8.37;;;6.50;;
14510;SDS011;7341;50.930;4.038;2022-12-07T02:59:26;10.07;;;6.13;;
14510;SDS011;7341;50.930;4.038;2022-12-07T03:02:05;10.20;;;6.47;;
14510;SDS011;7341;50.930;4.038;2022-12-07T03:04:43;12.30;;;6.77;;
14510;SDS011;7341;50.930;4.038;2022-12-07T03:07:21;12.03;;;6.63;;
14510;SDS011;7341;50.930;4.038;2022-12-07T03:09:58;12.17;;;7.13;;
14510;SDS011;7341;50.930;4.038;2022-12-07T03:12:29;10.00;;;7.40;;
14510;SDS011;7341;50.930;4.038;2022-12-07T03:15:05;11.98;;;7.88;;
14510;SDS011;7341;50.930;4.038;2022-12-07T03:17:36;12.27;;;6.93;;
14510;SDS011;7341;50.930;4.038;2022-12-07T03:20:10;9.87;;;6.57;;
14510;SDS011;7341;50.930;4.038;2022-12-07T03:22:42;14.33;;;7.63;;
14510;SDS011;7341;50.930;4.038;2022-12-07T03:25:11;10.30;;;7.13;;
14510;SDS011;7341;50.930;4.038;2022-12-07T03:27:41;9.70;;;7.07;;
14510;SDS011;7341;50.930;4.038;2022-12-07T03:30:13;8.93;;;8.03;;
14510;SDS011;7341;50.930;4.038;2022-12-07T03:32:44;11.23;;;7.77;;
14510;SDS011;7341;50.930;4.038;2022-12-07T03:35:17;11.23;;;6.97;;
14510;SDS011;7341;50.930;4.038;2022-12-07T03:37:48;12.00;;;7.20;;
14510;SDS011;7341;50.930;4.038;2022-12-07T03:40:19;14.70;;;7.57;;
14510;SDS011;7341;50.930;4.038;2022-12-07T03:42:50;13.37;;;7.73;;
14510;SDS011;7341;50.930;4.038;2022-12-07T03:45:19;10.53;;;7.00;;
14510;SDS011;7341;50.930;4.038;2022-12-07T03:47:53;12.07;;;7.53;;
14510;SDS011;7341;50.930;4.038;2022-12-07T03:50:29;14.67;;;8.00;;
14510;SDS011;7341;50.930;4.038;2022-12-07T03:53:04;12.53;;;7.50;;
14510;SDS011;7341;50.930;4.038;2022-12-07T03:55:37;13.43;;;7.40;;
14510;SDS011;7341;50.930;4.038;2022-12-07T03:58:09;13.17;;;8.07;;
14510;SDS011;7341;50.930;4.038;2022-12-07T04:00:39;15.93;;;8.13;;
14510;SDS011;7341;50.930;4.038;2022-12-07T04:03:06;12.17;;;7.73;;
14510;SDS011;7341;50.930;4.038;2022-12-07T04:05:33;12.87;;;7.70;;
14510;SDS011;7341;50.930;4.038;2022-12-07T04:08:00;10.93;;;7.47;;
14510;SDS011;7341;50.930;4.038;2022-12-07T04:10:27;11.03;;;7.57;;
14510;SDS011;7341;50.930;4.038;2022-12-07T04:12:54;12.03;;;7.53;;
14510;SDS011;7341;50.930;4.038;2022-12-07T04:15:21;12.52;;;7.80;;
14510;SDS011;7341;50.930;4.038;2022-12-07T04:17:49;13.07;;;8.03;;
14510;SDS011;7341;50.930;4.038;2022-12-07T04:20:16;9.57;;;7.30;;
14510;SDS011;7341;50.930;4.038;2022-12-07T04:22:43;11.97;;;6.90;;
14510;SDS011;7341;50.930;4.038;2022-12-07T04:25:10;8.10;;;6.90;;
14510;SDS011;7341;50.930;4.038;2022-12-07T04:27:36;9.10;;;7.00;;
14510;SDS011;7341;50.930;4.038;2022-12-07T04:30:04;9.27;;;7.13;;
14510;SDS011;7341;50.930;4.038;2022-12-07T04:32:31;12.47;;;7.63;;
14510;SDS011;7341;50.930;4.038;2022-12-07T04:34:59;8.93;;;7.23;;
14510;SDS011;7341;50.930;4.038;2022-12-07T04:37:26;11.37;;;7.40;;
14510;SDS011;7341;50.930;4.038;2022-12-07T04:39:53;8.43;;;6.50;;
14510;SDS011;7341;50.930;4.038;2022-12-07T04:42:19;7.70;;;6.67;;
14510;SDS011;7341;50.930;4.038;2022-12-07T04:44:46;12.03;;;6.90;;
14510;SDS011;7341;50.930;4.038;2022-12-07T04:47:13;13.27;;;9.90;;
14510;SDS011;7341;50.930;4.038;2022-12-07T04:49:40;12.30;;;8.07;;
14510;SDS011;7341;50.930;4.038;2022-12-07T04:52:08;10.97;;;7.30;;
14510;SDS011;7341;50.930;4.038;2022-12-07T04:54:34;13.27;;;7.97;;
14510;SDS011;7341;50.930;4.038;2022-12-07T04:57:01;10.57;;;7.20;;
14510;SDS011;7341;50.930;4.038;2022-12-07T04:59:28;12.10;;;7.37;;
14510;SDS011;7341;50.930;4.038;2022-12-07T05:01:55;11.17;;;7.27;;
14510;SDS011;7341;50.930;4.038;2022-12-07T05:04:21;11.30;;;6.97;;
14510;SDS011;7341;50.930;4.038;2022-12-07T05:06:48;12.73;;;7.27;;
14510;SDS011;7341;50.930;4.038;2022-12-07T05:09:16;10.57;;;7.00;;
14510;SDS011;7341;50.930;4.038;2022-12-07T05:11:43;9.83;;;7.00;;
14510;SDS011;7341;50.930;4.038;2022-12-07T05:14:11;13.70;;;7.47;;
14510;SDS011;7341;50.930;4.038;2022-12-07T05:16:39;10.73;;;6.73;;
14510;SDS011;7341;50.930;4.038;2022-12-07T05:19:06;16.73;;;8.33;;
14510;SDS011;7341;50.930;4.038;2022-12-07T05:21:35;11.80;;;8.83;;
14510;SDS011;7341;50.930;4.038;2022-12-07T05:24:02;12.40;;;7.90;;
14510;SDS011;7341;50.930;4.038;2022-12-07T05:26:31;11.20;;;6.97;;
14510;SDS011;7341;50.930;4.038;2022-12-07T05:28:57;13.30;;;7.17;;
14510;SDS011;7341;50.930;4.038;2022-12-07T05:31:25;12.93;;;7.23;;
14510;SDS011;7341;50.930;4.038;2022-12-07T05:33:52;12.77;;;6.53;;
14510;SDS011;7341;50.930;4.038;2022-12-07T05:36:19;14.20;;;7.47;;
14510;SDS011;7341;50.930;4.038;2022-12-07T05:38:47;10.00;;;6.17;;
14510;SDS011;7341;50.930;4.038;2022-12-07T05:41:14;11.53;;;6.80;;
14510;SDS011;7341;50.930;4.038;2022-12-07T05:44:01;8.90;;;6.47;;
14510;SDS011;7341;50.930;4.038;2022-12-07T05:46:28;10.55;;;8.60;;
14510;SDS011;7341;50.930;4.038;2022-12-07T05:48:55;11.90;;;6.77;;
14510;SDS011;7341;50.930;4.038;2022-12-07T05:51:22;9.30;;;6.07;;
14510;SDS011;7341;50.930;4.038;2022-12-07T05:53:49;9.83;;;5.70;;
14510;SDS011;7341;50.930;4.038;2022-12-07T05:56:15;6.77;;;5.73;;
14510;SDS011;7341;50.930;4.038;2022-12-07T05:58:42;8.80;;;5.33;;
14510;SDS011;7341;50.930;4.038;2022-12-07T06:01:28;7.77;;;6.03;;
14510;SDS011;7341;50.930;4.038;2022-12-07T06:03:54;9.83;;;6.00;;
14510;SDS011;7341;50.930;4.038;2022-12-07T06:06:21;10.27;;;6.23;;
14510;SDS011;7341;50.930;4.038;2022-12-07T06:08:48;7.73;;;5.97;;
14510;SDS011;7341;50.930;4.038;2022-12-07T06:11:15;12.35;;;9.02;;
14510;SDS011;7341;50.930;4.038;2022-12-07T06:13:59;7.57;;;6.63;;
14510;SDS011;7341;50.930;4.038;2022-12-07T06:16:27;10.50;;;6.63;;
14510;SDS011;7341;50.930;4.038;2022-12-07T06:18:56;12.33;;;6.40;;
14510;SDS011;7341;50.930;4.038;2022-12-07T06:21:23;10.40;;;7.00;;
14510;SDS011;7341;50.930;4.038;2022-12-07T06:23:51;13.50;;;6.47;;
14510;SDS011;7341;50.930;4.038;2022-12-07T06:26:18;10.17;;;6.23;;
14510;SDS011;7341;50.930;4.038;2022-12-07T06:28:46;9.03;;;6.13;;
14510;SDS011;7341;50.930;4.038;2022-12-07T06:31:13;9.57;;;6.03;;
14510;SDS011;7341;50.930;4.038;2022-12-07T06:33:41;11.60;;;6.20;;
14510;SDS011;7341;50.930;4.038;2022-12-07T06:36:08;11.37;;;5.90;;
14510;SDS011;7341;50.930;4.038;2022-12-07T06:38:36;12.80;;;6.00;;
14510;SDS011;7341;50.930;4.038;2022-12-07T06:41:02;10.73;;;5.87;;
14510;SDS011;7341;50.930;4.038;2022-12-07T06:43:29;12.80;;;6.60;;
14510;SDS011;7341;50.930;4.038;2022-12-07T06:45:56;11.37;;;5.93;;
14510;SDS011;7341;50.930;4.038;2022-12-07T06:48:23;12.70;;;6.30;;
14510;SDS011;7341;50.930;4.038;2022-12-07T06:50:51;12.87;;;6.70;;
14510;SDS011;7341;50.930;4.038;2022-12-07T06:53:19;10.77;;;6.00;;
14510;SDS011;7341;50.930;4.038;2022-12-07T06:55:45;12.63;;;5.80;;
14510;SDS011;7341;50.930;4.038;2022-12-07T06:58:12;11.00;;;5.00;;
14510;SDS011;7341;50.930;4.038;2022-12-07T07:00:39;10.03;;;4.87;;
14510;SDS011;7341;50.930;4.038;2022-12-07T07:03:06;13.93;;;5.80;;
14510;SDS011;7341;50.930;4.038;2022-12-07T07:05:32;9.17;;;5.30;;
14510;SDS011;7341;50.930;4.038;2022-12-07T07:08:00;12.10;;;5.43;;
14510;SDS011;7341;50.930;4.038;2022-12-07T07:10:27;8.47;;;6.27;;
14510;SDS011;7341;50.930;4.038;2022-12-07T07:12:54;9.63;;;5.33;;
14510;SDS011;7341;50.930;4.038;2022-12-07T07:15:21;11.67;;;5.20;;
14510;SDS011;7341;50.930;4.038;2022-12-07T07:17:48;10.57;;;5.57;;
14510;SDS011;7341;50.930;4.038;2022-12-07T07:20:14;13.77;;;5.40;;
14510;SDS011;7341;50.930;4.038;2022-12-07T07:22:41;13.20;;;5.17;;
14510;SDS011;7341;50.930;4.038;2022-12-07T07:25:12;12.17;;;6.07;;
14510;SDS011;7341;50.930;4.038;2022-12-07T07:27:38;10.83;;;5.37;;
14510;SDS011;7341;50.930;4.038;2022-12-07T07:30:06;20.03;;;6.13;;
14510;SDS011;7341;50.930;4.038;2022-12-07T07:32:34;6.90;;;5.70;;
14510;SDS011;7341;50.930;4.038;2022-12-07T07:35:00;11.77;;;6.20;;
14510;SDS011;7341;50.930;4.038;2022-12-07T07:37:27;9.17;;;5.93;;
14510;SDS011;7341;50.930;4.038;2022-12-07T07:39:54;12.20;;;5.40;;
14510;SDS011;7341;50.930;4.038;2022-12-07T07:42:22;14.63;;;7.13;;
14510;SDS011;7341;50.930;4.038;2022-12-07T07:44:49;11.67;;;6.63;;
14510;SDS011;7341;50.930;4.038;2022-12-07T07:47:16;11.27;;;6.40;;
14510;SDS011;7341;50.930;4.038;2022-12-07T07:49:42;8.40;;;6.80;;
14510;SDS011;7341;50.930;4.038;2022-12-07T07:52:09;9.63;;;6.30;;
14510;SDS011;7341;50.930;4.038;2022-12-07T07:54:36;13.27;;;7.20;;
14510;SDS011;7341;50.930;4.038;2022-12-07T07:57:03;11.70;;;6.73;;
14510;SDS011;7341;50.930;4.038;2022-12-07T07:59:31;9.17;;;6.67;;
14510;SDS011;7341;50.930;4.038;2022-12-07T08:01:57;13.90;;;7.53;;
14510;SDS011;7341;50.930;4.038;2022-12-07T08:04:24;12.53;;;7.33;;
14510;SDS011;7341;50.930;4.038;2022-12-07T08:06:51;18.30;;;8.17;;
14510;SDS011;7341;50.930;4.038;2022-12-07T08:09:18;11.60;;;7.50;;
14510;SDS011;7341;50.930;4.038;2022-12-07T08:11:45;14.47;;;7.47;;
14510;SDS011;7341;50.930;4.038;2022-12-07T08:14:12;14.37;;;7.90;;
14510;SDS011;7341;50.930;4.038;2022-12-07T08:16:40;16.27;;;7.37;;
14510;SDS011;7341;50.930;4.038;2022-12-07T08:19:07;12.93;;;7.13;;
14510;SDS011;7341;50.930;4.038;2022-12-07T08:21:34;10.93;;;7.53;;
14510;SDS011;7341;50.930;4.038;2022-12-07T08:24:00;14.43;;;7.60;;
14510;SDS011;7341;50.930;4.038;2022-12-07T08:26:27;12.83;;;7.07;;
14510;SDS011;7341;50.930;4.038;2022-12-07T08:28:54;10.10;;;6.73;;
14510;SDS011;7341;50.930;4.038;2022-12-07T08:31:21;14.60;;;7.23;;
14510;SDS011;7341;50.930;4.038;2022-12-07T08:33:49;7.60;;;6.70;;
14510;SDS011;7341;50.930;4.038;2022-12-07T08:36:16;10.73;;;7.13;;
14510;SDS011;7341;50.930;4.038;2022-12-07T08:38:43;9.57;;;6.53;;
14510;SDS011;7341;50.930;4.038;2022-12-07T08:41:10;30.70;;;8.73;;
14510;SDS011;7341;50.930;4.038;2022-12-07T08:43:37;11.90;;;7.50;;
14510;SDS011;7341;50.930;4.038;2022-12-07T08:46:06;13.68;;;7.78;;
14510;SDS011;7341;50.930;4.038;2022-12-07T08:48:36;11.63;;;7.40;;
14510;SDS011;7341;50.930;4.038;2022-12-07T08:51:08;8.67;;;6.40;;
14510;SDS011;7341;50.930;4.038;2022-12-07T08:53:35;11.43;;;6.53;;
14510;SDS011;7341;50.930;4.038;2022-12-07T08:56:03;58.93;;;11.47;;
14510;SDS011;7341;50.930;4.038;2022-12-07T08:58:31;8.33;;;5.50;;
14510;SDS011;7341;50.930;4.038;2022-12-07T09:00:59;10.87;;;6.20;;
14510;SDS011;7341;50.930;4.038;2022-12-07T09:03:26;10.30;;;7.07;;
14510;SDS011;7341;50.930;4.038;2022-12-07T09:05:52;7.83;;;5.53;;
14510;SDS011;7341;50.930;4.038;2022-12-07T09:08:21;13.43;;;5.60;;
14510;SDS011;7341;50.930;4.038;2022-12-07T09:10:51;9.33;;;5.23;;
14510;SDS011;7341;50.930;4.038;2022-12-07T09:13:18;8.63;;;6.10;;
14510;SDS011;7341;50.930;4.038;2022-12-07T09:15:44;9.00;;;5.97;;
14510;SDS011;7341;50.930;4.038;2022-12-07T09:18:11;11.73;;;6.20;;
14510;SDS011;7341;50.930;4.038;2022-12-07T09:20:38;9.47;;;4.87;;
14510;SDS011;7341;50.930;4.038;2022-12-07T09:23:05;9.83;;;5.20;;
14510;SDS011;7341;50.930;4.038;2022-12-07T09:25:33;6.93;;;4.97;;
14510;SDS011;7341;50.930;4.038;2022-12-07T09:28:00;12.20;;;5.17;;
14510;SDS011;7341;50.930;4.038;2022-12-07T09:30:27;8.70;;;5.87;;
14510;SDS011;7341;50.930;4.038;2022-12-07T09:32:54;9.03;;;5.53;;
14510;SDS011;7341;50.930;4.038;2022-12-07T09:35:22;5.27;;;4.43;;
14510;SDS011;7341;50.930;4.038;2022-12-07T09:37:49;8.90;;;6.40;;
14510;SDS011;7341;50.930;4.038;2022-12-07T09:40:16;10.07;;;6.53;;
14510;SDS011;7341;50.930;4.038;2022-12-07T09:42:48;122.30;;;16.97;;
14510;SDS011;7341;50.930;4.038;2022-12-07T09:45:19;77.67;;;12.60;;
14510;SDS011;7341;50.930;4.038;2022-12-07T09:47:48;9.93;;;6.37;;
14510;SDS011;7341;50.930;4.038;2022-12-07T09:50:15;8.13;;;5.27;;
14510;SDS011;7341;50.930;4.038;2022-12-07T09:52:45;10.27;;;5.03;;
14510;SDS011;7341;50.930;4.038;2022-12-07T09:55:15;7.17;;;4.93;;
14510;SDS011;7341;50.930;4.038;2022-12-07T09:57:45;9.83;;;4.30;;
14510;SDS011;7341;50.930;4.038;2022-12-07T10:00:14;10.03;;;4.83;;
14510;SDS011;7341;50.930;4.038;2022-12-07T10:02:43;12.33;;;4.23;;
14510;SDS011;7341;50.930;4.038;2022-12-07T10:05:13;7.93;;;4.40;;
14510;SDS011;7341;50.930;4.038;2022-12-07T10:07:42;7.90;;;4.27;;
14510;SDS011;7341;50.930;4.038;2022-12-07T10:10:13;106.57;;;14.17;;
14510;SDS011;7341;50.930;4.038;2022-12-07T10:12:56;194.97;;;24.77;;
14510;SDS011;7341;50.930;4.038;2022-12-07T10:15:41;7.00;;;3.43;;
14510;SDS011;7341;50.930;4.038;2022-12-07T10:18:28;7.17;;;4.20;;
14510;SDS011;7341;50.930;4.038;2022-12-07T10:21:00;6.23;;;3.50;;
14510;SDS011;7341;50.930;4.038;2022-12-07T10:23:39;7.03;;;3.40;;
14510;SDS011;7341;50.930;4.038;2022-12-07T10:26:21;5.03;;;3.63;;
14510;SDS011;7341;50.930;4.038;2022-12-07T10:28:55;8.77;;;3.43;;
14510;SDS011;7341;50.930;4.038;2022-12-07T10:31:26;9.90;;;4.23;;
14510;SDS011;7341;50.930;4.038;2022-12-07T10:33:53;6.40;;;3.40;;
14510;SDS011;7341;50.930;4.038;2022-12-07T10:36:22;7.00;;;3.80;;
14510;SDS011;7341;50.930;4.038;2022-12-07T10:38:53;10.10;;;4.10;;
14510;SDS011;7341;50.930;4.038;2022-12-07T10:41:25;10.23;;;4.10;;
14510;SDS011;7341;50.930;4.038;2022-12-07T10:43:53;12.03;;;4.17;;
14510;SDS011;7341;50.930;4.038;2022-12-07T10:46:45;9.65;;;4.38;;
14510;SDS011;7341;50.930;4.038;2022-12-07T10:52:44;9.47;;;2.80;;
14510;SDS011;7341;50.930;4.038;2022-12-07T10:55:20;5.50;;;2.73;;
14510;SDS011;7341;50.930;4.038;2022-12-07T10:58:03;4.87;;;2.40;;
14510;SDS011;7341;50.930;4.038;2022-12-07T11:00:51;6.97;;;2.70;;
14510;SDS011;7341;50.930;4.038;2022-12-07T11:06:25;2.67;;;2.23;;
14510;SDS011;7341;50.930;4.038;2022-12-07T11:09:03;4.27;;;2.50;;
14510;SDS011;7341;50.930;4.038;2022-12-07T11:11:46;4.97;;;2.23;;
14510;SDS011;7341;50.930;4.038;2022-12-07T11:14:18;5.93;;;2.00;;
14510;SDS011;7341;50.930;4.038;2022-12-07T11:16:52;5.23;;;2.10;;
14510;SDS011;7341;50.930;4.038;2022-12-07T11:19:39;5.63;;;2.17;;
14510;SDS011;7341;50.930;4.038;2022-12-07T11:22:18;5.57;;;2.27;;
14510;SDS011;7341;50.930;4.038;2022-12-07T11:24:52;6.40;;;2.77;;
14510;SDS011;7341;50.930;4.038;2022-12-07T11:27:28;5.00;;;1.90;;
14510;SDS011;7341;50.930;4.038;2022-12-07T11:30:08;6.93;;;2.40;;
14510;SDS011;7341;50.930;4.038;2022-12-07T11:32:46;5.30;;;2.10;;
14510;SDS011;7341;50.930;4.038;2022-12-07T11:35:30;6.72;;;2.80;;
14510;SDS011;7341;50.930;4.038;2022-12-07T11:38:07;7.53;;;2.70;;
14510;SDS011;7341;50.930;4.038;2022-12-07T11:40:38;8.40;;;2.63;;
14510;SDS011;7341;50.930;4.038;2022-12-07T11:43:09;4.30;;;2.07;;
14510;SDS011;7341;50.930;4.038;2022-12-07T11:45:44;6.67;;;2.27;;
14510;SDS011;7341;50.930;4.038;2022-12-07T11:48:17;2.70;;;1.83;;
14510;SDS011;7341;50.930;4.038;2022-12-07T11:50:51;5.73;;;1.37;;
14510;SDS011;7341;50.930;4.038;2022-12-07T11:53:22;3.37;;;1.10;;
14510;SDS011;7341;50.930;4.038;2022-12-07T11:55:56;4.73;;;2.00;;
14510;SDS011;7341;50.930;4.038;2022-12-07T12:01:15;3.60;;;1.90;;
14510;SDS011;7341;50.930;4.038;2022-12-07T12:03:54;2.33;;;1.77;;
14510;SDS011;7341;50.930;4.038;2022-12-07T12:06:28;5.70;;;2.70;;
14510;SDS011;7341;50.930;4.038;2022-12-07T12:08:58;4.90;;;2.43;;
14510;SDS011;7341;50.930;4.038;2022-12-07T12:11:37;6.67;;;2.90;;
14510;SDS011;7341;50.930;4.038;2022-12-07T12:14:21;6.03;;;3.27;;
14510;SDS011;7341;50.930;4.038;2022-12-07T12:17:07;6.90;;;3.30;;
14510;SDS011;7341;50.930;4.038;2022-12-07T12:20:00;7.03;;;2.50;;
14510;SDS011;7341;50.930;4.038;2022-12-07T12:22:34;4.90;;;3.17;;
14510;SDS011;7341;50.930;4.038;2022-12-07T12:25:12;5.03;;;2.43;;
14510;SDS011;7341;50.930;4.038;2022-12-07T12:27:45;4.67;;;3.20;;
14510;SDS011;7341;50.930;4.038;2022-12-07T12:33:03;3.23;;;2.30;;
14510;SDS011;7341;50.930;4.038;2022-12-07T12:35:32;5.20;;;2.17;;
14510;SDS011;7341;50.930;4.038;2022-12-07T12:41:00;6.13;;;2.63;;
14510;SDS011;7341;50.930;4.038;2022-12-07T12:43:40;6.47;;;2.73;;
14510;SDS011;7341;50.930;4.038;2022-12-07T12:55:16;5.40;;;1.30;;
14510;SDS011;7341;50.930;4.038;2022-12-07T13:04:12;2.17;;;1.27;;
14510;SDS011;7341;50.930;4.038;2022-12-07T13:06:44;5.87;;;2.03;;
14510;SDS011;7341;50.930;4.038;2022-12-07T13:09:17;1.83;;;1.33;;
14510;SDS011;7341;50.930;4.038;2022-12-07T13:11:48;4.23;;;1.30;;
14510;SDS011;7341;50.930;4.038;2022-12-07T13:14:41;3.95;;;1.63;;
14510;SDS011;7341;50.930;4.038;2022-12-07T13:23:13;4.87;;;2.10;;
14510;SDS011;7341;50.930;4.038;2022-12-07T13:25:45;4.60;;;2.40;;
14510;SDS011;7341;50.930;4.038;2022-12-07T13:28:19;4.33;;;2.13;;
14510;SDS011;7341;50.930;4.038;2022-12-07T13:30:57;3.73;;;1.93;;
14510;SDS011;7341;50.930;4.038;2022-12-07T13:33:32;6.63;;;2.30;;
14510;SDS011;7341;50.930;4.038;2022-12-07T13:36:01;4.33;;;2.37;;
14510;SDS011;7341;50.930;4.038;2022-12-07T13:38:29;3.80;;;1.50;;
14510;SDS011;7341;50.930;4.038;2022-12-07T13:41:02;3.87;;;1.87;;
14510;SDS011;7341;50.930;4.038;2022-12-07T13:43:41;5.00;;;1.70;;
14510;SDS011;7341;50.930;4.038;2022-12-07T13:46:09;2.47;;;1.30;;
14510;SDS011;7341;50.930;4.038;2022-12-07T13:48:43;4.57;;;1.50;;
14510;SDS011;7341;50.930;4.038;2022-12-07T13:51:16;5.37;;;1.70;;
14510;SDS011;7341;50.930;4.038;2022-12-07T13:53:49;4.77;;;1.90;;
14510;SDS011;7341;50.930;4.038;2022-12-07T13:56:17;2.90;;;1.70;;
14510;SDS011;7341;50.930;4.038;2022-12-07T13:58:45;3.93;;;1.83;;
14510;SDS011;7341;50.930;4.038;2022-12-07T14:01:12;2.40;;;1.57;;
14510;SDS011;7341;50.930;4.038;2022-12-07T14:03:39;2.60;;;1.80;;
14510;SDS011;7341;50.930;4.038;2022-12-07T14:06:10;6.83;;;2.03;;
14510;SDS011;7341;50.930;4.038;2022-12-07T14:08:41;3.27;;;2.07;;
14510;SDS011;7341;50.930;4.038;2022-12-07T14:11:10;3.87;;;2.00;;
14510;SDS011;7341;50.930;4.038;2022-12-07T14:13:47;2.10;;;1.47;;
14510;SDS011;7341;50.930;4.038;2022-12-07T14:16:23;3.90;;;1.70;;
14510;SDS011;7341;50.930;4.038;2022-12-07T14:18:52;6.37;;;2.00;;
14510;SDS011;7341;50.930;4.038;2022-12-07T14:21:21;4.37;;;2.00;;
14510;SDS011;7341;50.930;4.038;2022-12-07T14:24:08;6.57;;;2.23;;
14510;SDS011;7341;50.930;4.038;2022-12-07T14:26:37;2.73;;;1.87;;
14510;SDS011;7341;50.930;4.038;2022-12-07T14:32:18;3.60;;;2.00;;
14510;SDS011;7341;50.930;4.038;2022-12-07T14:34:54;2.63;;;1.40;;
14510;SDS011;7341;50.930;4.038;2022-12-07T14:37:23;3.53;;;1.80;;
14510;SDS011;7341;50.930;4.038;2022-12-07T14:39:51;3.47;;;2.30;;
14510;SDS011;7341;50.930;4.038;2022-12-07T14:42:17;3.60;;;2.67;;
14510;SDS011;7341;50.930;4.038;2022-12-07T14:44:47;3.38;;;2.20;;
14510;SDS011;7341;50.930;4.038;2022-12-07T14:47:13;4.03;;;2.70;;
14510;SDS011;7341;50.930;4.038;2022-12-07T14:49:40;7.00;;;2.97;;
14510;SDS011;7341;50.930;4.038;2022-12-07T14:52:09;11.07;;;3.10;;
14510;SDS011;7341;50.930;4.038;2022-12-07T14:54:41;8.37;;;5.10;;
14510;SDS011;7341;50.930;4.038;2022-12-07T14:57:09;5.63;;;2.53;;
14510;SDS011;7341;50.930;4.038;2022-12-07T14:59:36;6.17;;;2.70;;
14510;SDS011;7341;50.930;4.038;2022-12-07T15:02:05;7.50;;;2.80;;
14510;SDS011;7341;50.930;4.038;2022-12-07T15:04:32;6.33;;;3.77;;
14510;SDS011;7341;50.930;4.038;2022-12-07T15:06:59;10.50;;;4.60;;
14510;SDS011;7341;50.930;4.038;2022-12-07T15:09:28;4.03;;;2.67;;
14510;SDS011;7341;50.930;4.038;2022-12-07T15:11:55;5.63;;;3.07;;
14510;SDS011;7341;50.930;4.038;2022-12-07T15:14:22;5.00;;;2.93;;
14510;SDS011;7341;50.930;4.038;2022-12-07T15:16:49;4.70;;;2.53;;
14510;SDS011;7341;50.930;4.038;2022-12-07T15:19:17;6.23;;;3.00;;
14510;SDS011;7341;50.930;4.038;2022-12-07T15:21:47;5.67;;;3.33;;
14510;SDS011;7341;50.930;4.038;2022-12-07T15:24:14;9.70;;;3.80;;
14510;SDS011;7341;50.930;4.038;2022-12-07T15:26:41;8.57;;;3.63;;
14510;SDS011;7341;50.930;4.038;2022-12-07T15:29:08;5.67;;;3.60;;
14510;SDS011;7341;50.930;4.038;2022-12-07T15:31:36;5.80;;;3.53;;
14510;SDS011;7341;50.930;4.038;2022-12-07T15:34:04;5.60;;;4.15;;
14510;SDS011;7341;50.930;4.038;2022-12-07T15:36:33;5.67;;;3.83;;
14510;SDS011;7341;50.930;4.038;2022-12-07T15:39:00;7.03;;;4.27;;
14510;SDS011;7341;50.930;4.038;2022-12-07T15:41:27;8.57;;;3.50;;
14510;SDS011;7341;50.930;4.038;2022-12-07T15:43:54;7.63;;;3.50;;
14510;SDS011;7341;50.930;4.038;2022-12-07T15:46:39;9.13;;;3.90;;
14510;SDS011;7341;50.930;4.038;2022-12-07T15:49:08;7.00;;;3.90;;
14510;SDS011;7341;50.930;4.038;2022-12-07T15:51:38;7.07;;;4.37;;
14510;SDS011;7341;50.930;4.038;2022-12-07T15:54:06;8.43;;;4.53;;
14510;SDS011;7341;50.930;4.038;2022-12-07T15:56:32;7.37;;;5.40;;
14510;SDS011;7341;50.930;4.038;2022-12-07T15:58:59;14.48;;;9.93;;